KIPT/IPT METAR and TAF weather

Enter ICAO airport designator
Station Type Date Time Source
KIPT METAR 2023/01/30 10:54 UTC NOAA

KIPT 301054Z AUTO 00000KT 8SM OVC027 04/03 A3015 RMK AO2 SLP214 T00390028


Station Type Date Time Source
KIPT Decoded METAR 2023/01/30 10:54 UTC NOAA

WILLIAMSPORT-LYCOMING COUNTY, PA, United States (KIPT) 41-15N 076-55W 164M
Jan 30, 2023 - 05:54 AM EST / 2023.01.30 1054 UTC
Wind: Calm:0
Visibility: 8 mile(s):0
Sky conditions: overcast
Temperature: 39.0 F (3.9 C)
Dew Point: 37.0 F (2.8 C)
Relative Humidity: 92%
Pressure (altimeter): 30.15 in. Hg (1020 hPa)
ob: KIPT 301054Z AUTO 00000KT 8SM OVC027 04/03 A3015 RMK AO2 SLP214 T00390028
cycle: 11

Station Type Date Time Source
KIPT TAF 2023/01/30 10:51 UTC NOAA

TAF
AMD KIPT 300949Z 3010/3106 00000KT P6SM BKN035 OVC050

Example: see airport list